This is the latest recevied weather packets stored in our database for station/object SQ2LXT-10. If no packets are shown the sender has not sent any weather packets the latest 10 day(s).
| Time | Temp. | Humidity | Pressure | Rain* | Wind** | Luminosity | Snow |
|---|---|---|---|---|---|---|---|
| 1777915840 | 21.11° C | 53% | 1005.5 hPa | - | - | - | - |
| 1777914940 | 21.11° C | 51% | 1005.4 hPa | - | - | - | - |
| 1777914040 | 21.67° C | 50% | 1005.5 hPa | - | - | - | - |
| 1777913140 | 22.22° C | 49% | 1005.6 hPa | - | - | - | - |
| 1777912240 | 22.78° C | 53% | 1005.5 hPa | - | - | - | - |
| 1777911343 | 22.78° C | 54% | 1005.4 hPa | - | - | - | - |
| 1777910440 | 23.33° C | 49% | 1005.3 hPa | - | - | - | - |
| 1777909540 | 23.89° C | 41% | 1005.3 hPa | - | - | - | - |
| 1777908645 | 23.89° C | 40% | 1005.4 hPa | - | - | - | - |
| 1777907739 | 24.44° C | 39% | 1005.3 hPa | - | - | - | - |
| 1777906839 | 25° C | 37% | 1005.3 hPa | - | - | - | - |
| 1777905943 | 25° C | 38% | 1005.5 hPa | - | - | - | - |
| 1777905039 | 26.11° C | 38% | 1005.4 hPa | - | - | - | - |
| 1777904139 | 24.44° C | 42% | 1005.4 hPa | - | - | - | - |
| 1777903239 | 25.56° C | 39% | 1005.5 hPa | - | - | - | - |
| 1777902339 | 25° C | 40% | 1005.5 hPa | - | - | - | - |
| 1777901439 | 25.56° C | 40% | 1005.7 hPa | - | - | - | - |
| 1777900539 | 25° C | 41% | 1005.9 hPa | - | - | - | - |
| 1777899643 | 26.11° C | 38% | 1005.8 hPa | - | - | - | - |
| 1777898739 | 25° C | 40% | 1006 hPa | - | - | - | - |
| 1777897839 | 25.56° C | 38% | 1006 hPa | - | - | - | - |
| 1777896942 | 25° C | 39% | 1006 hPa | - | - | - | - |
| 1777896039 | 25° C | 37% | 1006.1 hPa | - | - | - | - |
| 1777895139 | 26.11° C | 36% | 1005.9 hPa | - | - | - | - |
| 1777894239 | 26.11° C | 36% | 1006 hPa | - | - | - | - |
* Rain since midnight (hover to see other rain measurements)
** Current wind speed in m/s (hover to see current wind gust speed)